createdAt,value
2019-02-09T00:02:06.937Z,8.70
2019-02-09T00:04:36.728Z,8.70
2019-02-09T00:07:06.486Z,8.80
2019-02-09T00:09:36.169Z,8.80
2019-02-09T00:12:06.121Z,8.90
2019-02-09T00:14:35.806Z,8.90
2019-02-09T00:17:05.629Z,8.80
2019-02-09T00:19:35.247Z,8.90
2019-02-09T00:22:05.608Z,8.90
2019-02-09T00:24:35.384Z,8.90
2019-02-09T00:27:05.256Z,8.90
2019-02-09T00:29:35.612Z,8.90
2019-02-09T00:32:05.266Z,8.90
2019-02-09T00:34:35.386Z,8.90
2019-02-09T00:37:05.306Z,8.90
2019-02-09T00:39:34.887Z,8.90
2019-02-09T00:42:04.887Z,8.90
2019-02-09T00:44:34.669Z,8.90
2019-02-09T00:47:04.559Z,8.90
2019-02-09T00:49:34.444Z,8.90
2019-02-09T00:52:04.355Z,8.90
2019-02-09T00:54:34.126Z,8.90
2019-02-09T00:57:03.881Z,9.00
2019-02-09T00:59:33.878Z,9.00
2019-02-09T01:02:06.513Z,9.00
2019-02-09T01:04:36.182Z,9.10
2019-02-09T01:07:06.419Z,9.20
2019-02-09T01:09:36.050Z,9.20
2019-02-09T01:12:06.086Z,9.10
2019-02-09T01:14:35.625Z,9.10
2019-02-09T01:17:05.351Z,9.00
2019-02-09T01:19:35.045Z,9.00
2019-02-09T01:22:04.783Z,8.90
2019-02-09T01:24:34.427Z,8.80
2019-02-09T01:27:04.174Z,8.80
2019-02-09T01:29:33.737Z,8.80
2019-02-09T01:32:03.211Z,8.70
2019-02-09T01:34:32.788Z,8.80
2019-02-09T01:37:02.600Z,8.80
2019-02-09T01:39:32.108Z,8.90
2019-02-09T01:42:01.642Z,8.90
2019-02-09T01:44:31.547Z,8.90
2019-02-09T01:47:01.417Z,8.90
2019-02-09T01:49:31.434Z,8.80
2019-02-09T01:52:01.127Z,8.80
2019-02-09T01:54:31.348Z,8.80
2019-02-09T01:57:00.884Z,8.70
2019-02-09T01:59:30.742Z,8.70
2019-02-09T02:02:00.596Z,8.70
2019-02-09T02:04:30.405Z,8.70
2019-02-09T02:07:00.080Z,8.70
2019-02-09T02:09:29.794Z,8.70
2019-02-09T02:11:59.604Z,8.70
2019-02-09T02:14:29.484Z,8.70
2019-02-09T02:16:59.206Z,8.70
2019-02-09T02:19:28.988Z,8.80
2019-02-09T02:21:58.617Z,8.80
2019-02-09T02:24:28.631Z,8.90
2019-02-09T02:26:58.270Z,8.90
2019-02-09T02:29:28.189Z,8.80
2019-02-09T02:31:58.028Z,8.80
2019-02-09T02:34:27.617Z,8.90
2019-02-09T02:36:57.343Z,8.90
2019-02-09T02:39:27.201Z,8.90
2019-02-09T02:41:57.292Z,8.90
2019-02-09T02:44:27.001Z,8.90
2019-02-09T02:46:57.166Z,9.00
2019-02-09T02:49:26.688Z,9.00
2019-02-09T02:51:56.265Z,8.90
2019-02-09T02:54:26.009Z,8.80
2019-02-09T02:56:55.585Z,8.70
2019-02-09T02:59:25.173Z,8.70
2019-02-09T03:01:54.981Z,8.60
2019-02-09T03:04:25.828Z,8.60
2019-02-09T03:06:55.752Z,8.60
2019-02-09T03:09:25.636Z,8.50
2019-02-09T03:11:55.619Z,8.50
2019-02-09T03:14:25.335Z,8.50
2019-02-09T03:16:54.935Z,8.50
2019-02-09T03:19:24.606Z,8.40
2019-02-09T03:21:54.121Z,8.40
2019-02-09T03:24:23.639Z,8.40
2019-02-09T03:26:53.435Z,8.30
2019-02-09T03:29:23.011Z,8.30
2019-02-09T03:31:53.273Z,8.30
2019-02-09T03:34:23.206Z,8.20
2019-02-09T03:36:52.784Z,8.20
2019-02-09T03:39:22.408Z,8.10
2019-02-09T03:41:52.210Z,8.10
2019-02-09T03:44:21.957Z,8.20
2019-02-09T03:46:51.647Z,8.20
2019-02-09T03:49:21.469Z,8.20
2019-02-09T03:51:51.338Z,8.20
2019-02-09T03:54:21.225Z,8.30
2019-02-09T03:56:51.926Z,8.30
2019-02-09T03:59:21.608Z,8.40
2019-02-09T04:01:51.326Z,8.40
2019-02-09T04:04:21.139Z,8.30
2019-02-09T04:06:51.078Z,8.20
2019-02-09T04:09:20.607Z,8.10
2019-02-09T04:11:50.254Z,8.00
2019-02-09T04:14:20.222Z,8.00
2019-02-09T04:16:49.935Z,7.90
2019-02-09T04:19:19.841Z,7.80
2019-02-09T04:21:49.737Z,7.80
2019-02-09T04:24:19.798Z,7.70
2019-02-09T04:26:49.545Z,7.70
2019-02-09T04:29:19.160Z,7.60
2019-02-09T04:31:49.000Z,7.50
2019-02-09T04:34:18.925Z,7.50
2019-02-09T04:36:48.847Z,7.50
2019-02-09T04:39:18.397Z,7.40
2019-02-09T04:41:48.172Z,7.40
2019-02-09T04:44:17.846Z,7.30
2019-02-09T04:46:47.725Z,7.20
2019-02-09T04:49:17.473Z,7.20
2019-02-09T04:51:47.675Z,7.10
2019-02-09T04:54:17.503Z,7.20
2019-02-09T04:56:47.385Z,7.20
2019-02-09T04:59:17.022Z,7.30
2019-02-09T05:01:46.856Z,7.40
2019-02-09T05:04:16.763Z,7.40
2019-02-09T05:06:46.939Z,7.50
2019-02-09T05:09:16.640Z,7.60
2019-02-09T05:11:46.661Z,7.70
2019-02-09T05:14:16.542Z,7.70
2019-02-09T05:16:46.489Z,7.80
2019-02-09T05:19:16.328Z,7.70
2019-02-09T05:21:46.039Z,7.70
2019-02-09T05:24:16.061Z,7.70
2019-02-09T05:26:45.908Z,7.60
2019-02-09T05:29:15.725Z,7.60
2019-02-09T05:31:45.333Z,7.60
2019-02-09T05:34:15.063Z,7.70
2019-02-09T05:36:44.503Z,7.70
2019-02-09T05:39:14.123Z,7.70
2019-02-09T05:41:43.730Z,7.70
2019-02-09T05:44:13.387Z,7.70
2019-02-09T05:46:43.018Z,7.70
2019-02-09T05:49:12.712Z,7.70
2019-02-09T05:51:42.300Z,7.70
2019-02-09T05:54:11.806Z,7.70
2019-02-09T05:56:41.342Z,7.80
2019-02-09T05:59:10.851Z,7.80
2019-02-09T06:01:40.767Z,7.80
2019-02-09T06:04:10.414Z,7.80
2019-02-09T06:06:40.128Z,7.70
2019-02-09T06:09:09.709Z,7.70
2019-02-09T06:11:39.444Z,7.70
2019-02-09T06:14:09.759Z,7.70
2019-02-09T06:16:39.646Z,7.70
2019-02-09T06:19:09.226Z,7.70
2019-02-09T06:21:39.026Z,7.70
2019-02-09T06:24:08.809Z,7.70
2019-02-09T06:26:38.393Z,7.70
2019-02-09T06:29:08.326Z,7.70
2019-02-09T06:31:40.849Z,7.80
2019-02-09T06:34:09.640Z,7.80
2019-02-09T06:36:39.591Z,7.70
2019-02-09T06:39:09.867Z,7.70
2019-02-09T06:41:39.492Z,7.70
2019-02-09T06:44:10.053Z,7.70
2019-02-09T06:46:39.615Z,7.70
2019-02-09T06:49:09.350Z,7.70
2019-02-09T06:51:38.949Z,7.70
2019-02-09T06:54:08.718Z,7.70
2019-02-09T06:56:38.315Z,7.70
2019-02-09T06:59:08.126Z,7.70
2019-02-09T07:01:38.070Z,7.60
2019-02-09T07:04:07.705Z,7.60
2019-02-09T07:06:37.565Z,7.60
2019-02-09T07:09:09.516Z,7.50
2019-02-09T07:11:39.269Z,7.50
2019-02-09T07:14:09.080Z,7.50
2019-02-09T07:16:38.751Z,7.60
2019-02-09T07:19:08.463Z,7.60
2019-02-09T07:21:38.164Z,7.60
2019-02-09T07:24:09.716Z,7.60
2019-02-09T07:26:39.108Z,7.60
2019-02-09T07:29:08.724Z,7.70
2019-02-09T07:31:38.594Z,7.70
2019-02-09T07:34:08.193Z,7.70
2019-02-09T07:36:37.834Z,7.70
2019-02-09T07:39:09.643Z,7.70
2019-02-09T07:41:39.412Z,7.70
2019-02-09T07:44:08.930Z,7.70
2019-02-09T07:46:38.591Z,7.70
2019-02-09T07:49:08.166Z,7.90
2019-02-09T07:51:37.524Z,7.90
2019-02-09T07:54:07.131Z,7.90
2019-02-09T07:56:36.683Z,7.80
2019-02-09T07:59:06.265Z,7.80
2019-02-09T08:01:36.064Z,7.80
2019-02-09T08:04:05.870Z,7.90
2019-02-09T08:06:41.245Z,7.90
2019-02-09T08:09:13.656Z,7.90
2019-02-09T08:11:44.309Z,8.00
2019-02-09T08:14:13.951Z,8.00
2019-02-09T08:16:44.121Z,8.00
2019-02-09T08:19:13.594Z,8.00
2019-02-09T08:21:43.141Z,8.00
2019-02-09T08:24:12.572Z,8.10
2019-02-09T08:26:42.126Z,8.10
2019-02-09T08:29:11.588Z,8.20
2019-02-09T08:31:41.470Z,8.30
2019-02-09T08:34:11.222Z,8.30
2019-02-09T08:36:42.545Z,8.30
2019-02-09T08:39:12.153Z,8.30
2019-02-09T08:41:41.781Z,8.30
2019-02-09T08:44:11.355Z,8.20
2019-02-09T08:46:41.011Z,8.20
2019-02-09T08:49:10.687Z,8.30
2019-02-09T08:51:40.390Z,8.30
2019-02-09T08:54:09.991Z,8.30
2019-02-09T08:56:39.728Z,8.30
2019-02-09T08:59:09.253Z,8.30
2019-02-09T09:01:39.073Z,8.20
2019-02-09T09:04:08.809Z,8.30
2019-02-09T09:06:38.155Z,8.30
2019-02-09T09:09:11.075Z,8.30
2019-02-09T09:11:40.752Z,8.40
2019-02-09T09:14:10.492Z,8.40
2019-02-09T09:16:40.074Z,8.50
2019-02-09T09:19:09.701Z,8.60
2019-02-09T09:21:39.281Z,8.60
2019-02-09T09:24:10.789Z,8.60
2019-02-09T09:26:45.264Z,8.60
2019-02-09T09:29:16.322Z,8.50
2019-02-09T09:31:51.136Z,8.50
2019-02-09T09:34:22.391Z,8.60
2019-02-09T09:36:54.064Z,8.50
2019-02-09T09:39:26.230Z,8.40
2019-02-09T09:41:56.071Z,8.30
2019-02-09T09:44:25.814Z,8.30
2019-02-09T09:46:55.553Z,8.20
2019-02-09T09:49:25.391Z,8.20
2019-02-09T09:51:55.136Z,8.30
2019-02-09T09:54:25.060Z,8.30
2019-02-09T09:56:55.059Z,8.40
2019-02-09T09:59:25.047Z,8.50
2019-02-09T10:01:54.603Z,8.50
2019-02-09T10:04:24.282Z,8.60
2019-02-09T10:06:54.253Z,8.70
2019-02-09T10:09:24.071Z,8.70
2019-02-09T10:11:53.792Z,8.80
2019-02-09T10:14:25.817Z,8.90
2019-02-09T10:16:56.261Z,9.00
2019-02-09T10:19:26.044Z,9.10
2019-02-09T10:21:55.789Z,9.20
2019-02-09T10:24:26.467Z,9.30
2019-02-09T10:26:56.667Z,9.40
2019-02-09T10:29:26.383Z,9.40
2019-02-09T10:31:57.952Z,9.50
2019-02-09T10:34:27.583Z,9.60
2019-02-09T10:36:58.947Z,9.60
2019-02-09T10:39:29.036Z,9.70
2019-02-09T10:41:59.039Z,9.70
2019-02-09T10:44:28.866Z,9.90
2019-02-09T10:46:59.276Z,9.90
2019-02-09T10:49:29.760Z,10.00
2019-02-09T10:51:59.534Z,10.00
2019-02-09T10:54:29.303Z,10.00
2019-02-09T10:56:58.925Z,10.00
2019-02-09T10:59:28.597Z,10.00
2019-02-09T11:01:58.380Z,10.00
2019-02-09T11:04:28.126Z,10.10
2019-02-09T11:06:58.280Z,10.10
2019-02-09T11:09:28.374Z,10.10
2019-02-09T11:11:57.943Z,10.10
2019-02-09T11:14:27.818Z,10.10
2019-02-09T11:16:57.565Z,10.20
2019-02-09T11:19:27.124Z,10.20
2019-02-09T11:21:57.355Z,10.30
2019-02-09T11:24:27.634Z,10.30
2019-02-09T11:26:57.636Z,10.30
2019-02-09T11:29:28.256Z,10.30
2019-02-09T11:31:58.683Z,10.40
2019-02-09T11:34:29.022Z,10.40
2019-02-09T11:36:59.282Z,10.40
2019-02-09T11:39:30.644Z,10.50
2019-02-09T11:42:00.241Z,10.50
2019-02-09T11:44:29.638Z,10.60
2019-02-09T11:46:59.262Z,10.60
2019-02-09T11:49:28.879Z,10.70
2019-02-09T11:51:58.767Z,10.70
2019-02-09T11:54:28.823Z,10.70
2019-02-09T11:56:58.479Z,10.60
2019-02-09T11:59:28.149Z,10.60
2019-02-09T12:01:57.782Z,10.60
2019-02-09T12:04:27.578Z,10.50
2019-02-09T12:06:57.256Z,10.70
2019-02-09T12:09:27.270Z,10.80
2019-02-09T12:11:58.583Z,11.00
2019-02-09T12:14:28.071Z,11.10
2019-02-09T12:16:57.797Z,11.20
2019-02-09T12:22:10.371Z,11.00
2019-02-09T12:24:39.655Z,11.10
2019-02-09T12:27:09.498Z,11.50
2019-02-09T12:29:40.801Z,11.50
2019-02-09T12:32:11.638Z,11.40
2019-02-09T12:34:40.968Z,11.20
2019-02-09T12:37:10.266Z,11.60
2019-02-09T12:39:39.672Z,11.70
2019-02-09T12:42:08.942Z,11.30
2019-02-09T12:44:39.026Z,11.40
2019-02-09T12:47:08.361Z,11.30
2019-02-09T12:49:37.707Z,11.30
2019-02-09T12:52:07.418Z,11.20
2019-02-09T12:54:47.795Z,11.20
2019-02-09T12:57:18.589Z,11.30
2019-02-09T12:59:48.002Z,11.60
2019-02-09T13:02:17.256Z,11.50
2019-02-09T13:04:46.705Z,11.50
2019-02-09T13:07:15.976Z,11.40
2019-02-09T13:09:45.370Z,11.40
2019-02-09T13:12:14.742Z,11.70
2019-02-09T13:14:44.010Z,11.80
2019-02-09T13:17:13.278Z,11.80
2019-02-09T13:19:43.045Z,11.70
2019-02-09T13:22:12.492Z,11.50
2019-02-09T13:24:41.838Z,11.30
2019-02-09T13:27:11.316Z,11.30
2019-02-09T13:29:40.581Z,11.20
2019-02-09T13:32:10.055Z,11.40
2019-02-09T13:34:39.374Z,11.60
2019-02-09T13:37:08.730Z,11.60
2019-02-09T13:39:38.123Z,11.90
2019-02-09T13:42:07.535Z,12.20
2019-02-09T13:44:36.837Z,12.60
2019-02-09T13:47:06.130Z,12.60
2019-02-09T13:49:35.475Z,12.70
2019-02-09T13:52:04.827Z,12.60
2019-02-09T13:54:34.193Z,12.30
2019-02-09T13:57:03.550Z,11.90
2019-02-09T13:59:33.452Z,11.70
2019-02-09T14:02:02.710Z,11.40
2019-02-09T14:04:32.114Z,11.40
2019-02-09T14:07:01.481Z,11.40
2019-02-09T14:09:30.762Z,11.40
2019-02-09T14:12:00.198Z,11.40
2019-02-09T14:14:29.575Z,11.30
2019-02-09T14:16:58.927Z,11.10
2019-02-09T14:19:28.261Z,11.30
2019-02-09T14:21:57.567Z,11.40
2019-02-09T14:24:26.977Z,11.50
2019-02-09T14:26:56.339Z,11.50
2019-02-09T14:29:25.788Z,11.60
2019-02-09T14:31:57.259Z,11.70
2019-02-09T14:34:26.774Z,11.80
2019-02-09T14:36:56.123Z,11.70
2019-02-09T14:39:25.507Z,11.70
2019-02-09T14:41:54.914Z,11.70
2019-02-09T14:44:24.325Z,12.00
2019-02-09T14:46:53.727Z,12.40
2019-02-09T14:49:23.136Z,12.10
2019-02-09T14:51:52.565Z,12.20
2019-02-09T14:54:21.804Z,12.20
2019-02-09T14:56:51.100Z,12.00
2019-02-09T14:59:20.546Z,11.70
2019-02-09T15:01:49.992Z,11.40
2019-02-09T15:04:19.318Z,11.10
2019-02-09T15:06:48.680Z,11.10
2019-02-09T15:09:18.182Z,10.90
2019-02-09T15:11:47.521Z,10.80
2019-02-09T15:14:16.944Z,10.70
2019-02-09T15:16:49.244Z,10.50
2019-02-09T15:19:20.661Z,10.40
2019-02-09T15:21:50.052Z,10.30
2019-02-09T15:24:19.522Z,10.30
2019-02-09T15:26:48.929Z,10.30
2019-02-09T15:29:18.309Z,10.30
2019-02-09T15:31:48.013Z,10.40
2019-02-09T15:34:17.591Z,10.40
2019-02-09T15:36:47.012Z,10.40
2019-02-09T15:39:18.509Z,10.40
2019-02-09T15:41:49.097Z,10.40
2019-02-09T15:44:18.903Z,10.40
2019-02-09T15:46:49.065Z,10.40
2019-02-09T15:49:18.514Z,10.40
2019-02-09T15:51:47.896Z,10.40
2019-02-09T15:54:17.208Z,10.50
2019-02-09T15:56:46.687Z,10.40
2019-02-09T15:59:16.013Z,10.40
2019-02-09T16:01:45.618Z,10.30
2019-02-09T16:04:17.957Z,10.30
2019-02-09T16:06:46.048Z,10.30
2019-02-09T16:09:15.440Z,10.30
2019-02-09T16:11:44.890Z,10.20
2019-02-09T16:14:14.251Z,10.10
2019-02-09T16:16:43.648Z,10.00
2019-02-09T16:19:13.163Z,10.00
2019-02-09T16:21:42.720Z,10.00
2019-02-09T16:24:12.221Z,9.90
2019-02-09T16:26:41.582Z,9.90
2019-02-09T16:29:10.899Z,9.90
2019-02-09T16:31:40.350Z,9.80
2019-02-09T16:34:09.791Z,9.80
2019-02-09T16:36:39.120Z,9.70
2019-02-09T16:39:08.941Z,9.70
2019-02-09T16:41:39.298Z,9.70
2019-02-09T16:44:08.699Z,9.70
2019-02-09T16:46:37.930Z,9.60
2019-02-09T16:49:07.426Z,9.60
2019-02-09T16:51:36.770Z,9.70
2019-02-09T16:54:06.538Z,9.70
2019-02-09T16:56:36.056Z,9.60
2019-02-09T16:59:05.582Z,9.60
2019-02-09T17:01:34.982Z,9.60
2019-02-09T17:04:04.987Z,9.70
2019-02-09T17:06:34.359Z,9.70
2019-02-09T17:09:05.289Z,9.70
2019-02-09T17:11:34.911Z,9.70
2019-02-09T17:14:04.586Z,9.70
2019-02-09T17:16:34.043Z,9.70
2019-02-09T17:19:03.414Z,9.70
2019-02-09T17:21:32.888Z,9.70
2019-02-09T17:24:02.205Z,9.80
2019-02-09T17:26:31.763Z,9.80
2019-02-09T17:29:01.246Z,9.80
2019-02-09T17:31:30.606Z,9.80
2019-02-09T17:34:00.166Z,9.80
2019-02-09T17:36:29.777Z,9.70
2019-02-09T17:38:59.247Z,9.80
2019-02-09T17:41:28.707Z,9.80
2019-02-09T17:43:58.207Z,9.80
2019-02-09T17:46:27.634Z,9.70
2019-02-09T17:48:57.085Z,9.70
2019-02-09T17:51:26.573Z,9.70
2019-02-09T17:53:56.109Z,9.70
2019-02-09T17:56:25.672Z,9.70
2019-02-09T17:58:55.129Z,9.60
2019-02-09T18:01:24.552Z,9.60
2019-02-09T18:03:54.023Z,9.60
2019-02-09T18:06:23.431Z,9.60
2019-02-09T18:08:52.802Z,9.60
2019-02-09T18:11:22.283Z,9.60
2019-02-09T18:13:51.754Z,9.60
2019-02-09T18:16:21.234Z,9.60
2019-02-09T18:18:50.681Z,9.60
2019-02-09T18:21:20.127Z,9.60
2019-02-09T18:23:49.673Z,9.60
2019-02-09T18:26:19.056Z,9.60
2019-02-09T18:28:48.530Z,9.60
2019-02-09T18:31:17.911Z,9.60
2019-02-09T18:33:47.390Z,9.60
2019-02-09T18:36:16.798Z,9.60
2019-02-09T18:38:46.250Z,9.50
2019-02-09T18:41:15.692Z,9.60
2019-02-09T18:43:45.087Z,9.50
2019-02-09T18:46:14.671Z,9.60
2019-02-09T18:48:44.098Z,9.50
2019-02-09T18:51:13.626Z,9.50
2019-02-09T18:53:43.056Z,9.50
2019-02-09T18:56:12.645Z,9.50
2019-02-09T18:58:42.185Z,9.40
2019-02-09T19:01:11.536Z,9.40
2019-02-09T19:03:41.010Z,9.40
2019-02-09T19:06:10.483Z,9.40
2019-02-09T19:08:39.920Z,9.30
2019-02-09T19:11:09.493Z,9.40
2019-02-09T19:13:39.046Z,9.30
2019-02-09T19:16:08.659Z,9.20
2019-02-09T19:18:38.521Z,9.20
2019-02-09T19:21:12.073Z,9.30
2019-02-09T19:23:41.582Z,9.30
2019-02-09T19:26:11.321Z,9.30
2019-02-09T19:28:40.762Z,9.20
2019-02-09T19:31:10.177Z,9.20
2019-02-09T19:33:39.495Z,9.20
2019-02-09T19:36:09.223Z,9.20
2019-02-09T19:38:38.663Z,9.30
2019-02-09T19:41:08.088Z,9.30
2019-02-09T19:43:37.497Z,9.30
2019-02-09T19:46:07.208Z,9.30
2019-02-09T19:48:36.652Z,9.30
2019-02-09T19:51:06.212Z,9.30
2019-02-09T19:53:35.641Z,9.30
2019-02-09T19:56:05.084Z,9.30
2019-02-09T19:58:34.509Z,9.30
2019-02-09T20:01:04.006Z,9.20
2019-02-09T20:03:33.524Z,9.30
2019-02-09T20:06:03.008Z,9.30
2019-02-09T20:08:32.793Z,9.30
2019-02-09T20:11:02.333Z,9.30
2019-02-09T20:13:32.401Z,9.20
2019-02-09T20:16:01.828Z,9.20
2019-02-09T20:18:31.315Z,9.20
2019-02-09T20:21:00.852Z,9.20
2019-02-09T20:23:30.371Z,9.30
2019-02-09T20:25:59.744Z,9.30
2019-02-09T20:28:29.293Z,9.20
2019-02-09T20:30:58.622Z,9.30
2019-02-09T20:33:28.112Z,9.30
2019-02-09T20:35:58.007Z,9.20
2019-02-09T20:38:27.418Z,9.20
2019-02-09T20:41:00.367Z,9.20
2019-02-09T20:43:29.814Z,9.20
2019-02-09T20:45:59.878Z,9.20
2019-02-09T20:48:29.293Z,9.20
2019-02-09T20:50:58.745Z,9.20
2019-02-09T20:53:28.108Z,9.20
2019-02-09T20:55:57.500Z,9.20
2019-02-09T20:58:27.491Z,9.20
2019-02-09T21:00:56.887Z,9.20
2019-02-09T21:03:26.333Z,9.20
2019-02-09T21:05:56.078Z,9.30
2019-02-09T21:08:25.845Z,9.20
2019-02-09T21:10:55.351Z,9.20
2019-02-09T21:13:24.727Z,9.10
2019-02-09T21:15:54.179Z,9.20
2019-02-09T21:18:23.701Z,9.20
2019-02-09T21:20:53.150Z,9.20
2019-02-09T21:23:22.568Z,9.20
2019-02-09T21:25:52.178Z,9.10
2019-02-09T21:28:21.653Z,9.10
2019-02-09T21:30:51.159Z,9.20
2019-02-09T21:33:20.591Z,9.10
2019-02-09T21:35:49.995Z,9.20
2019-02-09T21:38:19.433Z,9.10
2019-02-09T21:40:48.938Z,9.10
2019-02-09T21:43:18.346Z,9.00
2019-02-09T21:45:47.802Z,9.00
2019-02-09T21:48:17.240Z,9.00
2019-02-09T21:50:46.642Z,9.00
2019-02-09T21:53:16.088Z,9.00
2019-02-09T21:55:45.529Z,9.00
2019-02-09T21:58:15.099Z,8.90
2019-02-09T22:00:44.841Z,8.90
2019-02-09T22:03:14.576Z,9.00
2019-02-09T22:05:51.526Z,9.00
2019-02-09T22:08:19.560Z,9.00
2019-02-09T22:10:47.665Z,8.90
2019-02-09T22:13:17.086Z,8.90
2019-02-09T22:15:46.568Z,8.90
2019-02-09T22:18:16.247Z,8.90
2019-02-09T22:20:52.447Z,8.80
2019-02-09T22:23:16.749Z,8.90
2019-02-09T22:25:46.231Z,8.90
2019-02-09T22:28:15.693Z,9.00
2019-02-09T22:30:45.245Z,9.00
2019-02-09T22:33:14.761Z,9.00
2019-02-09T22:35:44.172Z,8.90
2019-02-09T22:38:13.640Z,9.00
2019-02-09T22:40:43.077Z,9.10
2019-02-09T22:43:13.172Z,9.00
2019-02-09T22:45:42.712Z,9.10
2019-02-09T22:48:12.121Z,9.10
2019-02-09T22:50:44.201Z,9.10
2019-02-09T22:53:13.865Z,9.10
2019-02-09T22:55:43.242Z,9.10
2019-02-09T22:58:12.745Z,9.10
2019-02-09T23:01:04.744Z,9.10
2019-02-09T23:03:42.087Z,9.20
2019-02-09T23:06:41.754Z,9.20
2019-02-09T23:09:15.107Z,9.20
2019-02-09T23:11:44.505Z,9.20
2019-02-09T23:14:13.890Z,9.20
2019-02-09T23:16:43.327Z,9.10
2019-02-09T23:19:12.725Z,9.00
2019-02-09T23:21:42.158Z,9.00
2019-02-09T23:24:11.588Z,9.00
2019-02-09T23:26:40.979Z,8.90
2019-02-09T23:29:10.377Z,9.00
2019-02-09T23:31:39.754Z,9.00
2019-02-09T23:34:09.169Z,9.00
2019-02-09T23:36:38.613Z,9.00
2019-02-09T23:39:08.004Z,8.80
2019-02-09T23:41:37.401Z,8.90
2019-02-09T23:44:06.976Z,8.90
2019-02-09T23:46:36.357Z,8.90
2019-02-09T23:49:05.798Z,8.90
2019-02-09T23:51:35.269Z,8.90
2019-02-09T23:54:04.630Z,8.90
2019-02-09T23:56:33.986Z,8.90
2019-02-09T23:59:03.439Z,9.00
